aviador You're here:

KMAW Decoded Metar

in
Report Time2017-06-24 22:15:00
UTC Time2017-06-24 22:19:15
Flight Rules vfr VFR
Wind320° at 10 kt
W.Decomp.*RWY 32: 10.0 kt HW 0 kt LCW
RWY 36: 7.7 kt HW 6.4 kt LCW
W.Rank320° ranks 20
Current wind is above 320° avg. (6.9)
Visibility9999 m
Phenomena:N/A
Clouds:N/A
Expected CloudBase > 6,400 ft AGL from Temp-Dew spread
CeilingNone
Temp27°C
Dew Point11°C (37% RH)
Heat Index26.7°C
AAT23.7°C
QNH1020 hPa
Raw Report
KMAW 242215Z AUTO 32010KT 10SM CLR 27/11 A3011 RMK AO2=

Extra information for KMAW:More info

Social comments